Call, North Carolina
Current Conditions -  °F | °C
As of 3:35 AM on Friday 19 Dec 2014 (Local Time) from KUKF Reporting Station
Overcast Overcast  
Wind Chill: 36°   Ceiling: 4800
Heat Index: 41°   Visibility: 10mi
Dew Point: 23°   Wind: 7mph
Humidity: 49%   Direction: 320°NW
Pressure: 30.14"   Gusts: NA
Location:  36.1997°N, 81.0764°W
Report Text: KUKF 190835Z AUTO 32006KT 10SM OVC048 05/M05 A3014 RMK AO2
Loading
Personal Weather Stations






























Interactive Weather Map New forecast layout! Learn more

10-Day Weather Forecast

Advertisements
Track Severe Weather on mobile